Time;durP1;ratioP1;P1;durP2;ratioP2;P2;SDS_P1;SDS_P2;PMS_P1;PMS_P2;Temp;Humidity;BMP_temperature;BMP_pressure;BME280_temperature;BME280_humidity;BME280_pressure;Samples;Min_cycle;Max_cycle;Signal;HPM_P1;HPM_P2
2021/06/05 07:50:41;;;;;;;11.50;2.15;;;;;;;;;;5224138;27;20747;-72
2021/06/05 07:53:14;;;;;;;6.88;1.85;;;;;;;;;;5161209;27;20116;-71
2021/06/05 07:55:47;;;;;;;3.85;1.77;;;;;;;;;;5200542;28;20048;-71
2021/06/05 07:58:20;;;;;;;4.38;1.50;;;;;;;;;;5167913;28;20869;-73
2021/06/05 08:00:53;;;;;;;3.40;1.90;;;;;;;;;;5163988;28;20069;-73
2021/06/05 08:03:26;;;;;;;3.42;1.52;;;;;;;;;;5144725;28;20072;-73
2021/06/05 08:06:00;;;;;;;19.38;1.88;;;;;;;;;;5154561;28;20091;-73
2021/06/05 08:08:33;;;;;;;2.85;1.55;;;;;;;;;;5141816;28;20589;-74
2021/06/05 08:11:06;;;;;;;8.23;1.90;;;;;;;;;;5134293;28;20044;-72
2021/06/05 08:13:39;;;;;;;5.63;1.60;;;;;;;;;;5152620;28;20595;-74
2021/06/05 08:16:12;;;;;;;3.65;1.48;;;;;;;;;;5153836;28;20306;-73
2021/06/05 08:18:45;;;;;;;3.45;1.75;;;;;;;;;;5146906;28;20060;-71
2021/06/05 08:21:20;;;;;;;6.68;1.45;;;;;;;;;;5145817;28;20592;-73
2021/06/05 08:23:53;;;;;;;2.38;1.30;;;;;;;;;;5149525;28;20053;-72
2021/06/05 08:26:26;;;;;;;4.95;2.20;;;;;;;;;;5153557;28;20059;-75
2021/06/05 08:28:58;;;;;;;3.72;1.40;;;;;;;;;;5149440;28;20064;-73
2021/06/05 08:31:31;;;;;;;3.67;1.80;;;;;;;;;;5145814;28;20052;-74
2021/06/05 08:34:05;;;;;;;4.60;1.58;;;;;;;;;;5153503;28;20722;-73
2021/06/05 08:36:38;;;;;;;;;;;;;;;;;;5151746;28;21147;-72
2021/06/05 08:39:11;;;;;;;6.18;1.70;;;;;;;;;;5153213;28;19929;-74
2021/06/05 08:41:50;;;;;;;2.45;1.40;;;;;;;;;;5148823;28;21012;-73
2021/06/05 08:44:35;;;;;;;2.03;1.30;;;;;;;;;;5145233;28;20363;-74
2021/06/05 08:47:24;;;;;;;1.85;1.27;;;;;;;;;;5154428;28;20080;-73
2021/06/05 08:50:00;;;;;;;4.35;1.67;;;;;;;;;;5146957;28;20059;-73
2021/06/05 08:52:38;;;;;;;4.15;1.38;;;;;;;;;;5152799;28;20594;-74
2021/06/05 08:55:16;;;;;;;3.42;1.60;;;;;;;;;;5148285;28;20037;-72
2021/06/05 08:57:49;;;;;;;2.30;1.40;;;;;;;;;;5140740;28;20067;-73
2021/06/05 09:00:28;;;;;;;4.93;1.35;;;;;;;;;;5143202;28;20790;-72
2021/06/05 09:03:07;;;;;;;7.50;1.80;;;;;;;;;;5131784;28;20068;-73
2021/06/05 09:05:45;;;;;;;4.07;1.50;;;;;;;;;;5132095;28;20056;-72
2021/06/05 09:08:19;;;;;;;3.65;1.30;;;;;;;;;;5135354;28;20068;-71
2021/06/05 09:11:06;;;;;;;3.45;1.38;;;;;;;;;;5144830;28;20052;-72
2021/06/05 09:13:40;;;;;;;3.30;1.48;;;;;;;;;;5128085;28;20495;-74
2021/06/05 09:16:19;;;;;;;5.32;1.90;;;;;;;;;;5141301;28;20053;-72
2021/06/05 09:18:54;;;;;;;2.22;1.30;;;;;;;;;;5144032;28;20409;-70
2021/06/05 09:21:32;;;;;;;6.15;1.85;;;;;;;;;;5139969;28;20068;-72
2021/06/05 09:24:14;;;;;;;2.85;1.42;;;;;;;;;;5131979;28;20049;-71
2021/06/05 09:27:00;;;;;;;2.75;1.50;;;;;;;;;;5130606;28;20311;-73
2021/06/05 09:29:53;;;;;;;3.22;1.55;;;;;;;;;;5137111;28;20421;-73
2021/06/05 09:32:31;;;;;;;2.90;1.55;;;;;;;;;;5131891;28;25678;-72
2021/06/05 09:35:10;;;;;;;2.53;1.48;;;;;;;;;;5142660;28;20041;-70
2021/06/05 09:37:44;;;;;;;2.85;1.63;;;;;;;;;;5134325;28;20334;-74
2021/06/05 09:40:22;;;;;;;3.75;0.98;;;;;;;;;;5146497;28;20495;-73
2021/06/05 09:43:13;;;;;;;2.70;1.40;;;;;;;;;;5130244;28;20429;-72
2021/06/05 09:45:47;;;;;;;4.85;1.55;;;;;;;;;;5156187;28;20053;-71
2021/06/05 09:48:23;;;;;;;4.88;1.70;;;;;;;;;;5161521;28;20365;-72
2021/06/05 09:50:58;;;;;;;3.60;1.48;;;;;;;;;;5146057;28;20426;-72
2021/06/05 09:53:33;;;;;;;5.20;1.30;;;;;;;;;;5155468;28;20053;-72
2021/06/05 09:56:12;;;;;;;3.67;1.30;;;;;;;;;;5161423;28;20064;-72
2021/06/05 09:58:47;;;;;;;2.28;1.70;;;;;;;;;;5169793;28;20041;-73
2021/06/05 10:01:25;;;;;;;3.10;1.35;;;;;;;;;;5161763;28;20049;-71
2021/06/05 10:04:21;;;;;;;3.17;1.70;;;;;;;;;;5153326;28;20056;-72
2021/06/05 10:06:55;;;;;;;4.65;1.77;;;;;;;;;;5147881;28;20056;-71
2021/06/05 10:09:30;;;;;;;10.55;1.80;;;;;;;;;;5141455;28;20042;-71
2021/06/05 10:15:43;;;;;;;7.75;2.40;;;;;;;;;;5243869;27;20388;-75
2021/06/05 10:18:20;;;;;;;4.28;1.90;;;;;;;;;;5149998;27;20045;-75
2021/06/05 10:21:07;;;;;;;8.32;1.77;;;;;;;;;;5128987;28;20049;-75
2021/06/05 10:23:44;;;;;;;5.38;1.63;;;;;;;;;;5125751;28;20056;-76
2021/06/05 10:26:22;;;;;;;13.57;2.00;;;;;;;;;;5143403;28;20070;-76
2021/06/05 10:29:18;;;;;;;8.88;1.88;;;;;;;;;;5143767;28;20050;-76
2021/06/05 10:31:52;;;;;;;11.45;2.17;;;;;;;;;;5152109;28;20352;-76
2021/06/05 10:34:28;;;;;;;10.27;2.00;;;;;;;;;;5135601;28;20052;-76
2021/06/05 10:37:00;;;;;;;15.88;1.70;;;;;;;;;;5161312;28;20060;-76
2021/06/05 10:39:35;;;;;;;7.63;2.38;;;;;;;;;;5159664;28;20050;-76
2021/06/05 10:42:26;;;;;;;13.32;1.83;;;;;;;;;;5161634;28;20057;-75
2021/06/05 10:44:59;;;;;;;7.88;1.90;;;;;;;;;;5154428;28;20045;-75
2021/06/05 10:47:41;;;;;;;5.78;2.10;;;;;;;;;;5151012;28;20888;-75
2021/06/05 10:50:16;;;;;;;5.78;1.60;;;;;;;;;;5159893;28;20056;-75
2021/06/05 10:52:49;;;;;;;8.52;1.70;;;;;;;;;;5158525;28;20581;-76
2021/06/05 10:55:36;;;;;;;11.23;1.83;;;;;;;;;;5156321;28;20465;-75
2021/06/05 10:58:19;;;;;;;8.63;2.22;;;;;;;;;;5146045;28;20312;-75
2021/06/05 11:00:54;;;;;;;13.30;2.00;;;;;;;;;;5150460;28;20045;-75
2021/06/05 11:03:26;;;;;;;9.95;1.60;;;;;;;;;;5147242;28;20398;-76
2021/06/05 11:06:10;;;;;;;4.85;1.42;;;;;;;;;;5137668;28;20708;-75
2021/06/05 11:08:56;;;;;;;8.05;1.65;;;;;;;;;;5130601;28;20057;-75
2021/06/05 11:11:40;;;;;;;3.97;1.60;;;;;;;;;;5138231;28;20045;-74
2021/06/05 11:14:21;;;;;;;7.47;1.77;;;;;;;;;;5126893;28;20049;-75
2021/06/05 11:16:57;;;;;;;6.38;2.00;;;;;;;;;;5111910;28;21027;-75
2021/06/05 11:19:32;;;;;;;9.55;1.80;;;;;;;;;;5114741;28;20049;-74
2021/06/05 11:22:05;;;;;;;8.88;1.92;;;;;;;;;;5112763;28;20052;-75
2021/06/05 11:24:39;;;;;;;3.35;1.25;;;;;;;;;;5106345;28;21700;-75
2021/06/05 11:27:44;;;;;;;2.33;1.60;;;;;;;;;;5098525;28;20060;-75
2021/06/05 11:30:23;;;;;;;7.95;1.60;;;;;;;;;;5104566;28;20054;-74
2021/06/05 11:32:57;;;;;;;13.13;1.80;;;;;;;;;;5104867;28;20057;-74
2021/06/05 11:35:33;;;;;;;16.60;2.05;;;;;;;;;;5108663;28;20056;-75
2021/06/05 11:38:08;;;;;;;11.95;1.85;;;;;;;;;;5119493;28;20049;-74
2021/06/05 11:40:53;;;;;;;10.18;1.80;;;;;;;;;;5098090;28;20042;-75
2021/06/05 11:43:28;;;;;;;8.48;2.03;;;;;;;;;;5112133;28;20422;-74
2021/06/05 11:46:14;;;;;;;9.40;1.90;;;;;;;;;;5116973;28;20045;-74
2021/06/05 11:49:01;;;;;;;3.05;1.50;;;;;;;;;;5116633;28;20054;-74
2021/06/05 11:51:36;;;;;;;5.60;1.42;;;;;;;;;;5092777;28;20057;-75
2021/06/05 11:54:14;;;;;;;9.55;1.80;;;;;;;;;;5116874;28;20946;-74
2021/06/05 11:56:47;;;;;;;9.98;1.70;;;;;;;;;;5111820;28;20045;-74
2021/06/05 11:59:23;;;;;;;6.82;1.63;;;;;;;;;;5121304;28;20042;-74
2021/06/05 12:02:04;;;;;;;5.88;1.73;;;;;;;;;;5118063;28;20052;-75
2021/06/05 12:04:40;;;;;;;7.55;1.52;;;;;;;;;;5129519;28;20049;-74
2021/06/05 12:07:29;;;;;;;4.72;2.03;;;;;;;;;;5135591;28;20447;-75
2021/06/05 12:10:04;;;;;;;9.63;1.88;;;;;;;;;;5143706;28;20052;-75
2021/06/05 12:12:39;;;;;;;13.77;1.65;;;;;;;;;;5160555;28;20316;-74
2021/06/05 12:15:32;;;;;;;7.15;1.80;;;;;;;;;;5153958;28;20048;-74
2021/06/05 12:18:09;;;;;;;8.07;1.80;;;;;;;;;;5165331;28;20041;-73
2021/06/05 12:20:45;;;;;;;9.80;1.60;;;;;;;;;;5145610;28;20056;-74
2021/06/05 12:23:18;;;;;;;9.88;1.88;;;;;;;;;;5150166;28;25997;-74
2021/06/05 12:25:52;;;;;;;7.13;1.80;;;;;;;;;;5149227;28;20041;-74
2021/06/05 12:28:27;;;;;;;7.53;2.25;;;;;;;;;;5153244;28;20304;-74
2021/06/05 12:31:12;;;;;;;9.38;1.58;;;;;;;;;;5150677;28;20049;-74
2021/06/05 12:33:54;;;;;;;7.55;2.00;;;;;;;;;;5140677;28;20052;-74
2021/06/05 12:36:34;;;;;;;14.20;1.90;;;;;;;;;;5138637;28;20052;-74
2021/06/05 12:39:26;;;;;;;6.00;1.48;;;;;;;;;;5153740;28;20048;-74
2021/06/05 12:41:59;;;;;;;8.45;1.70;;;;;;;;;;5150351;28;20157;-74
2021/06/05 12:44:33;;;;;;;8.52;1.50;;;;;;;;;;5156734;28;20056;-74
2021/06/05 12:47:08;;;;;;;6.72;1.50;;;;;;;;;;5166101;28;20052;-74
2021/06/05 12:49:43;;;;;;;8.27;1.67;;;;;;;;;;5157078;28;20080;-74
2021/06/05 12:52:27;;;;;;;3.75;1.40;;;;;;;;;;5170681;28;20049;-74
2021/06/05 12:55:14;;;;;;;4.15;1.48;;;;;;;;;;5146590;28;20041;-74
2021/06/05 12:57:49;;;;;;;6.07;1.45;;;;;;;;;;5155234;28;20389;-74
2021/06/05 13:00:31;;;;;;;6.75;1.63;;;;;;;;;;5159868;28;20048;-74
2021/06/05 13:03:07;;;;;;;7.43;1.75;;;;;;;;;;5140882;28;20606;-74
2021/06/05 13:05:41;;;;;;;6.88;1.67;;;;;;;;;;5129111;28;20045;-74
2021/06/05 13:08:17;;;;;;;8.23;2.03;;;;;;;;;;5156292;28;20226;-73
2021/06/05 13:10:51;;;;;;;9.40;2.47;;;;;;;;;;5143390;28;20302;-74
2021/06/05 13:14:03;;;;;;;6.97;1.70;;;;;;;;;;5143261;28;20049;-74
2021/06/05 13:16:36;;;;;;;4.72;2.00;;;;;;;;;;5137244;28;20324;-73
2021/06/05 13:19:13;;;;;;;13.02;1.83;;;;;;;;;;5153910;28;20531;-75
2021/06/05 13:22:02;;;;;;;12.63;1.70;;;;;;;;;;5131774;28;20048;-74
2021/06/05 13:24:35;;;;;;;12.38;1.55;;;;;;;;;;5142093;28;20045;-74
2021/06/05 13:27:08;;;;;;;;;;;;;;;;;;5139599;28;20075;-74
2021/06/05 13:29:41;;;;;;;12.60;2.20;;;;;;;;;;5151228;28;20924;-74
2021/06/05 13:32:35;;;;;;;8.85;1.63;;;;;;;;;;5153989;28;20353;-74
2021/06/05 13:35:08;;;;;;;7.03;1.70;;;;;;;;;;5247035;28;20347;-72
2021/06/05 13:38:01;;;;;;;16.98;2.85;;;;;;;;;;5219104;28;20053;-71
2021/06/05 13:40:34;;;;;;;22.40;2.90;;;;;;;;;;5216275;28;20525;-71
2021/06/05 13:43:07;;;;;;;8.73;2.10;;;;;;;;;;5217844;28;20060;-71
2021/06/05 14:40:18;;;;;;;11.65;1.83;;;;;;;;;;5197309;27;20936;-61
2021/06/05 14:42:51;;;;;;;12.30;2.08;;;;;;;;;;5210354;28;20616;-62
2021/06/05 14:45:26;;;;;;;11.00;2.25;;;;;;;;;;5193068;28;20055;-59
2021/06/05 17:16:48;;;;;;;5.95;2.00;;;;;;;;;;5269404;27;20927;-56
2021/06/05 17:19:21;;;;;;;8.35;1.85;;;;;;;;;;5191956;27;20646;-61
2021/06/05 17:21:54;;;;;;;15.02;2.63;;;;;;;;;;5151082;28;20053;-61
2021/06/05 17:24:27;;;;;;;11.20;1.58;;;;;;;;;;5158099;28;20078;-60
2021/06/05 17:27:01;;;;;;;6.40;1.77;;;;;;;;;;5184217;28;20044;-59
2021/06/05 17:29:34;;;;;;;5.50;1.60;;;;;;;;;;5175302;28;20044;-61
2021/06/05 17:32:07;;;;;;;9.23;2.42;;;;;;;;;;5180426;28;20044;-61
2021/06/05 17:34:41;;;;;;;7.20;1.75;;;;;;;;;;5157237;28;20056;-61
2021/06/05 17:37:15;;;;;;;6.85;1.92;;;;;;;;;;5165491;28;20048;-61
2021/06/05 17:39:48;;;;;;;5.53;1.67;;;;;;;;;;5161145;28;20052;-61
2021/06/05 17:42:21;;;;;;;8.77;1.50;;;;;;;;;;5164059;28;20044;-60
2021/06/05 17:44:54;;;;;;;9.43;1.50;;;;;;;;;;5172479;28;20614;-60
2021/06/05 17:47:26;;;;;;;5.22;1.73;;;;;;;;;;5169603;28;20056;-60
2021/06/05 17:50:00;;;;;;;3.90;1.35;;;;;;;;;;5159532;22;20050;-75
2021/06/05 17:52:33;;;;;;;7.60;1.70;;;;;;;;;;5112351;28;20142;-75
2021/06/05 17:55:08;;;;;;;9.70;1.83;;;;;;;;;;5124876;28;20042;-74
2021/06/05 17:57:41;;;;;;;6.93;2.40;;;;;;;;;;5119142;28;20325;-74
2021/06/05 18:00:15;;;;;;;6.03;1.38;;;;;;;;;;5110219;28;20045;-74
2021/06/05 18:02:48;;;;;;;6.82;1.73;;;;;;;;;;5105100;28;20056;-74
2021/06/05 18:05:22;;;;;;;17.88;2.30;;;;;;;;;;5106836;28;20066;-72
2021/06/05 18:07:55;;;;;;;;;;;;;;;;;;5096790;28;20640;-76
2021/06/05 18:10:28;;;;;;;8.32;1.52;;;;;;;;;;5116578;28;19941;-74
2021/06/05 18:13:21;;;;;;;5.20;1.50;;;;;;;;;;5117441;28;20034;-73
2021/06/05 18:15:57;;;;;;;4.70;1.35;;;;;;;;;;5099921;28;20490;-73
2021/06/05 18:18:30;;;;;;;7.80;1.35;;;;;;;;;;5101068;28;20045;-74
2021/06/05 18:21:05;;;;;;;3.65;1.25;;;;;;;;;;5086750;28;20042;-75
2021/06/05 18:23:38;;;;;;;8.63;1.45;;;;;;;;;;5119150;28;20489;-75
2021/06/05 18:26:11;;;;;;;4.85;1.20;;;;;;;;;;5101046;28;20050;-73
2021/06/05 18:28:44;;;;;;;7.15;1.45;;;;;;;;;;5087355;28;20042;-74
2021/06/05 18:31:17;;;;;;;9.95;1.50;;;;;;;;;;5092580;28;20685;-73
2021/06/05 18:33:51;;;;;;;6.45;1.45;;;;;;;;;;5080017;28;21029;-72
2021/06/05 18:36:25;;;;;;;3.63;1.23;;;;;;;;;;5076616;28;20390;-74
2021/06/05 18:38:59;;;;;;;3.72;1.85;;;;;;;;;;5073449;28;20152;-75
2021/06/05 18:41:33;;;;;;;4.13;1.13;;;;;;;;;;5093965;28;20046;-74
2021/06/05 18:44:06;;;;;;;4.53;1.30;;;;;;;;;;5082530;28;20039;-75
2021/06/05 18:46:39;;;;;;;5.78;1.65;;;;;;;;;;5097001;28;20053;-75
2021/06/05 18:49:13;;;;;;;5.28;1.40;;;;;;;;;;5089408;28;20624;-75
2021/06/05 18:51:47;;;;;;;4.15;1.40;;;;;;;;;;5084140;28;20138;-73
2021/06/05 18:54:20;;;;;;;6.93;2.05;;;;;;;;;;5091529;28;20050;-73
2021/06/05 18:56:53;;;;;;;3.83;1.30;;;;;;;;;;5092593;28;20046;-75
2021/06/05 18:59:26;;;;;;;2.97;1.45;;;;;;;;;;5079474;28;20046;-74
2021/06/05 19:02:00;;;;;;;4.15;1.20;;;;;;;;;;5091779;28;20045;-75
2021/06/05 19:04:33;;;;;;;5.43;1.30;;;;;;;;;;5086762;28;20061;-74
